createdAt,value
2019-03-09T00:02:19.848Z,100051.73
2019-03-09T00:04:47.485Z,100047.08
2019-03-09T00:07:15.134Z,100044.59
2019-03-09T00:09:43.070Z,100043.70
2019-03-09T00:12:10.698Z,100046.95
2019-03-09T00:14:38.355Z,100042.13
2019-03-09T00:17:05.983Z,100029.98
2019-03-09T00:19:33.625Z,100031.09
2019-03-09T00:22:01.257Z,100031.06
2019-03-09T00:24:34.575Z,100025.21
2019-03-09T00:27:14.099Z,100020.75
2019-03-09T00:29:48.617Z,100029.86
2019-03-09T00:32:18.191Z,100024.64
2019-03-09T00:34:45.842Z,100012.62
2019-03-09T00:37:13.479Z,100008.00
2019-03-09T00:39:41.128Z,100013.44
2019-03-09T00:42:08.779Z,100013.91
2019-03-09T00:44:36.423Z,100011.34
2019-03-09T00:47:04.087Z,100011.10
2019-03-09T00:49:31.723Z,100006.79
2019-03-09T00:51:59.373Z,100000.34
2019-03-09T00:54:27.012Z,99997.89
2019-03-09T00:56:54.647Z,100002.45
2019-03-09T00:59:22.312Z,99989.48
2019-03-09T01:01:49.957Z,99994.98
2019-03-09T01:04:17.602Z,99982.33
2019-03-09T01:06:45.234Z,99990.77
2019-03-09T01:09:12.879Z,99987.63
2019-03-09T01:11:40.506Z,99975.98
2019-03-09T01:14:08.149Z,99978.69
2019-03-09T01:16:35.795Z,99975.23
2019-03-09T01:19:03.440Z,99977.87
2019-03-09T01:21:31.069Z,99979.61
2019-03-09T01:23:58.703Z,99976.16
2019-03-09T01:26:26.367Z,99972.22
2019-03-09T01:28:54.055Z,99963.19
2019-03-09T01:31:21.689Z,99949.70
2019-03-09T01:33:49.318Z,99951.45
2019-03-09T01:36:16.946Z,99955.32
2019-03-09T01:38:44.578Z,99959.30
2019-03-09T01:41:12.206Z,99945.59
2019-03-09T01:43:39.861Z,99946.10
2019-03-09T01:46:07.582Z,99950.89
2019-03-09T01:48:35.202Z,99940.73
2019-03-09T01:51:02.838Z,99945.41
2019-03-09T01:53:36.691Z,99937.63
2019-03-09T01:55:59.826Z,99940.48
2019-03-09T01:58:27.464Z,99943.76
2019-03-09T02:00:55.110Z,99940.14
2019-03-09T02:03:22.916Z,99946.20
2019-03-09T02:05:50.614Z,99941.08
2019-03-09T02:08:18.246Z,99935.81
2019-03-09T02:10:45.894Z,99943.13
2019-03-09T02:13:13.628Z,99941.03
2019-03-09T02:15:41.295Z,99934.70
2019-03-09T02:18:09.020Z,99925.15
2019-03-09T02:20:36.742Z,99922.78
2019-03-09T02:23:04.375Z,99923.09
2019-03-09T02:25:32.015Z,99912.66
2019-03-09T02:27:59.734Z,99911.75
2019-03-09T02:30:27.504Z,99910.05
2019-03-09T02:32:55.192Z,99903.76
2019-03-09T02:35:22.862Z,99892.28
2019-03-09T02:37:50.521Z,99877.94
2019-03-09T02:40:23.104Z,99863.28
2019-03-09T02:42:51.053Z,99855.77
2019-03-09T02:45:19.274Z,99857.83
2019-03-09T02:47:46.902Z,99860.09
2019-03-09T02:50:14.545Z,99852.61
2019-03-09T02:52:43.218Z,99848.18
2019-03-09T02:55:10.930Z,99847.94
2019-03-09T02:57:38.563Z,99846.55
2019-03-09T03:00:06.203Z,99845.67
2019-03-09T03:02:37.828Z,99846.21
2019-03-09T03:05:05.459Z,99838.73
2019-03-09T03:07:33.098Z,99836.27
2019-03-09T03:10:00.745Z,99837.72
2019-03-09T03:12:28.392Z,99827.73
2019-03-09T03:14:56.037Z,99829.44
2019-03-09T03:17:23.817Z,99830.78
2019-03-09T03:19:51.533Z,99821.91
2019-03-09T03:22:19.179Z,99815.16
2019-03-09T03:24:46.821Z,99809.45
2019-03-09T03:27:14.450Z,99803.46
2019-03-09T03:29:42.117Z,99801.48
2019-03-09T03:32:09.803Z,99800.20
2019-03-09T03:34:37.502Z,99794.27
2019-03-09T03:37:05.146Z,99787.48
2019-03-09T03:39:32.788Z,99787.60
2019-03-09T03:42:00.420Z,99787.83
2019-03-09T03:44:28.056Z,99788.95
2019-03-09T03:46:55.707Z,99783.23
2019-03-09T03:49:25.070Z,99776.45
2019-03-09T03:51:52.691Z,99768.45
2019-03-09T03:54:20.322Z,99762.14
2019-03-09T03:56:47.967Z,99738.28
2019-03-09T03:59:15.597Z,99740.26
2019-03-09T04:01:43.237Z,99727.81
2019-03-09T04:04:10.876Z,99720.63
2019-03-09T04:06:38.518Z,99717.38
2019-03-09T04:09:06.161Z,99726.44
2019-03-09T04:11:33.798Z,99723.23
2019-03-09T04:14:01.425Z,99720.80
2019-03-09T04:16:29.067Z,99711.97
2019-03-09T04:18:56.692Z,99709.44
2019-03-09T04:21:24.326Z,99705.17
2019-03-09T04:23:51.961Z,99707.91
2019-03-09T04:26:19.591Z,99693.95
2019-03-09T04:28:47.220Z,99692.40
2019-03-09T04:31:14.858Z,99697.74
2019-03-09T04:33:42.487Z,99685.00
2019-03-09T04:36:10.124Z,99680.55
2019-03-09T04:38:37.759Z,99671.31
2019-03-09T04:41:05.410Z,99667.61
2019-03-09T04:43:33.043Z,99669.93
2019-03-09T04:46:00.676Z,99661.50
2019-03-09T04:48:28.306Z,99652.27
2019-03-09T04:50:55.964Z,99649.73
2019-03-09T04:53:23.599Z,99647.69
2019-03-09T04:55:51.248Z,99640.98
2019-03-09T04:58:18.879Z,99627.84
2019-03-09T05:00:46.515Z,99622.17
2019-03-09T05:03:14.142Z,99629.00
2019-03-09T05:05:41.782Z,99623.52
2019-03-09T05:08:09.421Z,99620.94
2019-03-09T05:10:37.053Z,99607.51
2019-03-09T05:13:04.716Z,99606.42
2019-03-09T05:15:32.390Z,99599.64
2019-03-09T05:18:00.022Z,99592.98
2019-03-09T05:20:27.656Z,99583.89
2019-03-09T05:22:55.282Z,99578.92
2019-03-09T05:25:22.931Z,99581.47
2019-03-09T05:27:50.571Z,99565.80
2019-03-09T05:30:18.215Z,99559.34
2019-03-09T05:32:45.859Z,99559.48
2019-03-09T05:35:13.541Z,99551.78
2019-03-09T05:37:43.284Z,99552.36
2019-03-09T05:40:10.555Z,99556.82
2019-03-09T05:42:38.186Z,99558.19
2019-03-09T05:45:05.825Z,99563.73
2019-03-09T05:47:33.459Z,99556.28
2019-03-09T05:50:01.095Z,99555.90
2019-03-09T05:52:28.722Z,99542.87
2019-03-09T05:54:56.359Z,99542.73
2019-03-09T05:57:24.014Z,99523.92
2019-03-09T05:59:51.659Z,99519.08
2019-03-09T06:02:19.287Z,99514.97
2019-03-09T06:04:46.937Z,99520.92
2019-03-09T06:07:14.587Z,99519.99
2019-03-09T06:09:42.218Z,99515.09
2019-03-09T06:12:09.863Z,99512.94
2019-03-09T06:14:37.535Z,99518.27
2019-03-09T06:17:05.178Z,99508.45
2019-03-09T06:19:32.807Z,99509.35
2019-03-09T06:22:00.446Z,99501.84
2019-03-09T06:24:28.076Z,99509.22
2019-03-09T06:26:55.715Z,99499.53
2019-03-09T06:29:23.371Z,99496.39
2019-03-09T06:31:51.019Z,99485.57
2019-03-09T06:34:18.663Z,99485.63
2019-03-09T06:36:46.323Z,99479.88
2019-03-09T06:39:13.956Z,99481.22
2019-03-09T06:41:41.595Z,99491.48
2019-03-09T06:44:09.363Z,99477.94
2019-03-09T06:46:37.007Z,99471.88
2019-03-09T06:49:05.651Z,99473.98
2019-03-09T06:51:33.291Z,99466.06
2019-03-09T06:54:00.933Z,99473.27
2019-03-09T06:56:28.623Z,99463.05
2019-03-09T06:58:56.311Z,99467.32
2019-03-09T07:01:24.042Z,99478.76
2019-03-09T07:03:51.698Z,99474.90
2019-03-09T07:06:19.322Z,99476.16
2019-03-09T07:08:46.963Z,99462.37
2019-03-09T07:11:14.603Z,99462.37
2019-03-09T07:13:52.105Z,99468.86
2019-03-09T07:16:11.593Z,99452.57
2019-03-09T07:18:39.236Z,99450.88
2019-03-09T07:21:06.865Z,99446.88
2019-03-09T07:23:34.618Z,99457.36
2019-03-09T07:26:02.271Z,99468.92
2019-03-09T07:28:29.925Z,99462.25
2019-03-09T07:30:57.665Z,99464.98
2019-03-09T07:33:25.342Z,99476.00
2019-03-09T07:35:52.977Z,99464.35
2019-03-09T07:38:20.614Z,99466.25
2019-03-09T07:40:48.293Z,99481.71
2019-03-09T07:43:16.026Z,99476.16
2019-03-09T07:45:43.705Z,99475.89
2019-03-09T07:48:11.335Z,99468.73
2019-03-09T07:50:38.995Z,99459.92
2019-03-09T07:53:06.658Z,99441.19
2019-03-09T07:55:34.342Z,99440.55
2019-03-09T07:58:02.020Z,99444.61
2019-03-09T08:00:29.655Z,99437.40
2019-03-09T08:02:57.302Z,99427.84
2019-03-09T08:05:24.933Z,99450.30
2019-03-09T08:07:52.602Z,99433.55
2019-03-09T08:10:20.270Z,99429.70
2019-03-09T08:12:47.909Z,99440.05
2019-03-09T08:15:15.547Z,99432.92
2019-03-09T08:17:43.179Z,99431.77
2019-03-09T08:20:11.868Z,99451.63
2019-03-09T08:22:39.529Z,99435.83
2019-03-09T08:25:07.220Z,99455.61
2019-03-09T08:27:35.063Z,99442.03
2019-03-09T08:30:02.784Z,99427.74
2019-03-09T08:32:30.552Z,99431.95
2019-03-09T08:34:58.312Z,99406.92
2019-03-09T08:37:25.977Z,99421.73
2019-03-09T08:39:53.884Z,99432.77
2019-03-09T08:42:21.509Z,99434.33
2019-03-09T08:44:49.148Z,99414.96
2019-03-09T08:47:16.788Z,99431.40
2019-03-09T08:49:44.429Z,99444.01
2019-03-09T08:52:12.095Z,99456.23
2019-03-09T08:54:39.778Z,99466.17
2019-03-09T08:57:07.451Z,99461.75
2019-03-09T08:59:35.096Z,99418.88
2019-03-09T09:02:02.791Z,99438.81
2019-03-09T09:04:30.490Z,99436.72
2019-03-09T09:06:58.137Z,99427.55
2019-03-09T09:09:25.770Z,99430.94
2019-03-09T09:11:53.409Z,99436.03
2019-03-09T09:14:21.046Z,99431.63
2019-03-09T09:16:48.683Z,99429.14
2019-03-09T09:19:16.334Z,99441.73
2019-03-09T09:21:43.977Z,99415.36
2019-03-09T09:24:11.627Z,99429.92
2019-03-09T09:26:39.278Z,99443.72
2019-03-09T09:29:06.931Z,99431.00
2019-03-09T09:31:34.575Z,99440.30
2019-03-09T09:34:02.227Z,99441.23
2019-03-09T09:36:29.867Z,99448.23
2019-03-09T09:38:57.532Z,99453.98
2019-03-09T09:41:25.270Z,99464.52
2019-03-09T09:43:52.928Z,99471.05
2019-03-09T09:46:20.580Z,99470.86
2019-03-09T09:48:48.242Z,99466.08
2019-03-09T09:51:15.921Z,99470.59
2019-03-09T09:53:43.636Z,99463.41
2019-03-09T09:56:11.279Z,99478.11
2019-03-09T09:58:38.933Z,99476.45
2019-03-09T10:01:06.567Z,99480.52
2019-03-09T10:03:34.207Z,99480.63
2019-03-09T10:06:02.163Z,99465.18
2019-03-09T10:08:29.873Z,99477.82
2019-03-09T10:10:57.522Z,99471.67
2019-03-09T10:13:25.298Z,99488.38
2019-03-09T10:15:53.186Z,99487.35
2019-03-09T10:18:21.118Z,99487.02
2019-03-09T10:20:48.874Z,99480.59
2019-03-09T10:23:16.652Z,99494.36
2019-03-09T10:25:44.300Z,99497.97
2019-03-09T10:28:11.951Z,99486.65
2019-03-09T10:30:39.590Z,99483.05
2019-03-09T10:33:07.244Z,99494.62
2019-03-09T10:35:34.887Z,99498.56
2019-03-09T10:38:02.727Z,99492.94
2019-03-09T10:40:30.412Z,99509.59
2019-03-09T10:42:58.082Z,99508.13
2019-03-09T10:45:25.736Z,99515.07
2019-03-09T10:47:53.385Z,99499.09
2019-03-09T10:50:21.270Z,99489.37
2019-03-09T10:52:48.912Z,99501.73
2019-03-09T10:55:16.584Z,99503.33
2019-03-09T10:57:44.522Z,99509.66
2019-03-09T11:00:12.226Z,99509.09
2019-03-09T11:02:39.869Z,99515.42
2019-03-09T11:05:07.520Z,99505.56
2019-03-09T11:07:35.171Z,99504.63
2019-03-09T11:10:02.850Z,99521.34
2019-03-09T11:12:30.494Z,99533.98
2019-03-09T11:14:58.139Z,99503.86
2019-03-09T11:17:26.183Z,99479.64
2019-03-09T11:19:53.827Z,99499.46
2019-03-09T11:22:21.466Z,99519.16
2019-03-09T11:24:49.111Z,99501.86
2019-03-09T11:27:16.756Z,99504.53
2019-03-09T11:29:44.659Z,99489.47
2019-03-09T11:32:12.432Z,99498.42
2019-03-09T11:34:40.085Z,99491.94
2019-03-09T11:37:07.718Z,99504.23
2019-03-09T11:39:35.377Z,99489.91
2019-03-09T11:42:03.073Z,99484.16
2019-03-09T11:44:30.835Z,99492.11
2019-03-09T11:46:58.499Z,99488.11
2019-03-09T11:49:26.185Z,99475.45
2019-03-09T11:51:53.814Z,99471.91
2019-03-09T11:54:21.473Z,99469.41
2019-03-09T11:56:49.115Z,99466.27
2019-03-09T11:59:16.754Z,99473.75
2019-03-09T12:01:44.395Z,99468.77
2019-03-09T12:04:12.125Z,99457.55
2019-03-09T12:06:39.789Z,99465.59
2019-03-09T12:09:07.440Z,99478.77
2019-03-09T12:11:35.090Z,99472.84
2019-03-09T12:14:02.900Z,99484.61
2019-03-09T12:16:30.556Z,99474.58
2019-03-09T12:18:58.236Z,99468.64
2019-03-09T12:21:25.894Z,99455.98
2019-03-09T12:23:53.545Z,99485.42
2019-03-09T12:26:21.182Z,99478.50
2019-03-09T12:28:48.822Z,99472.91
2019-03-09T12:31:16.544Z,99461.39
2019-03-09T12:33:44.175Z,99464.72
2019-03-09T12:36:12.056Z,99469.30
2019-03-09T12:38:39.747Z,99475.63
2019-03-09T12:41:07.384Z,99464.17
2019-03-09T12:43:35.019Z,99484.37
2019-03-09T12:46:02.673Z,99476.00
2019-03-09T12:48:30.343Z,99473.38
2019-03-09T12:50:57.991Z,99469.13
2019-03-09T12:53:25.639Z,99462.16
2019-03-09T12:55:53.291Z,99456.56
2019-03-09T12:58:21.006Z,99460.68
2019-03-09T13:00:48.658Z,99464.06
2019-03-09T13:03:16.288Z,99466.95
2019-03-09T13:05:43.939Z,99482.33
2019-03-09T13:08:11.583Z,99474.83
2019-03-09T13:10:39.840Z,99471.68
2019-03-09T13:13:07.460Z,99483.08
2019-03-09T13:15:35.131Z,99480.03
2019-03-09T13:18:02.974Z,99478.52
2019-03-09T13:20:30.688Z,99487.08
2019-03-09T13:22:58.367Z,99489.20
2019-03-09T13:25:26.021Z,99472.13
2019-03-09T13:27:53.663Z,99465.36
2019-03-09T13:30:21.316Z,99452.66
2019-03-09T13:32:49.013Z,99458.41
2019-03-09T13:35:16.725Z,99455.62
2019-03-09T13:37:44.378Z,99453.80
2019-03-09T13:40:12.055Z,99444.73
2019-03-09T13:42:39.780Z,99441.90
2019-03-09T13:45:07.566Z,99427.67
2019-03-09T13:47:35.207Z,99419.11
2019-03-09T13:50:02.975Z,99429.56
2019-03-09T13:52:30.626Z,99420.41
2019-03-09T13:54:58.406Z,99414.15
2019-03-09T13:57:26.049Z,99402.58
2019-03-09T13:59:53.720Z,99390.06
2019-03-09T14:02:21.418Z,99375.41
2019-03-09T14:04:49.067Z,99368.94
2019-03-09T14:07:16.781Z,99363.41
2019-03-09T14:09:44.527Z,99343.67
2019-03-09T14:12:12.175Z,99355.77
2019-03-09T14:14:39.814Z,99353.70
2019-03-09T14:17:07.462Z,99344.22
2019-03-09T14:19:35.110Z,99343.97
2019-03-09T14:22:02.863Z,99335.02
2019-03-09T14:24:30.501Z,99341.86
2019-03-09T14:26:58.165Z,99360.48
2019-03-09T14:29:25.804Z,99343.23
2019-03-09T14:31:53.480Z,99361.73
2019-03-09T14:34:21.110Z,99358.75
2019-03-09T14:36:48.764Z,99373.78
2019-03-09T14:39:16.411Z,99366.09
2019-03-09T14:41:44.054Z,99365.42
2019-03-09T14:44:11.716Z,99382.13
2019-03-09T14:46:39.439Z,99384.72
2019-03-09T14:49:07.141Z,99381.22
2019-03-09T14:51:34.787Z,99374.05
2019-03-09T14:54:02.435Z,99369.72
2019-03-09T14:56:30.091Z,99377.83
2019-03-09T14:58:57.728Z,99350.56
2019-03-09T15:01:25.366Z,99355.77
2019-03-09T15:03:53.008Z,99360.46
2019-03-09T15:06:22.130Z,99357.06
2019-03-09T15:08:50.054Z,99352.28
2019-03-09T15:11:17.715Z,99328.19
2019-03-09T15:13:45.368Z,99333.59
2019-03-09T15:16:13.006Z,99326.73
2019-03-09T15:18:40.653Z,99329.70
2019-03-09T15:21:08.308Z,99323.45
2019-03-09T15:23:35.972Z,99326.94
2019-03-09T15:26:03.627Z,99309.30
2019-03-09T15:28:31.258Z,99307.53
2019-03-09T15:30:58.902Z,99296.73
2019-03-09T15:33:26.556Z,99307.13
2019-03-09T15:35:54.195Z,99296.39
2019-03-09T15:38:21.830Z,99295.55
2019-03-09T15:40:49.471Z,99293.91
2019-03-09T15:43:17.110Z,99301.72
2019-03-09T15:45:45.004Z,99300.51
2019-03-09T15:48:12.652Z,99293.61
2019-03-09T15:50:40.384Z,99277.67
2019-03-09T15:53:08.021Z,99278.61
2019-03-09T15:55:35.781Z,99276.53
2019-03-09T15:58:03.430Z,99256.36
2019-03-09T16:00:31.169Z,99257.68
2019-03-09T16:02:58.806Z,99247.34
2019-03-09T16:05:26.446Z,99240.02
2019-03-09T16:07:54.110Z,99227.06
2019-03-09T16:10:21.766Z,99214.55
2019-03-09T16:12:49.443Z,99198.11
2019-03-09T16:15:17.096Z,99189.02
2019-03-09T16:17:44.730Z,99175.47
2019-03-09T16:20:12.376Z,99159.85
2019-03-09T16:22:40.023Z,99158.92
2019-03-09T16:25:07.664Z,99141.58
2019-03-09T16:27:35.302Z,99138.03
2019-03-09T16:30:02.948Z,99143.09
2019-03-09T16:32:30.630Z,99137.02
2019-03-09T16:34:58.262Z,99139.12
2019-03-09T16:37:25.910Z,99129.61
2019-03-09T16:39:53.559Z,99135.91
2019-03-09T16:42:21.207Z,99157.41
2019-03-09T16:44:48.851Z,99165.02
2019-03-09T16:47:16.579Z,99158.92
2019-03-09T16:49:44.222Z,99155.89
2019-03-09T16:52:11.881Z,99134.33
2019-03-09T16:54:39.527Z,99155.86
2019-03-09T16:57:07.176Z,99141.22
2019-03-09T16:59:34.862Z,99131.72
2019-03-09T17:02:02.524Z,99130.40
2019-03-09T17:04:30.161Z,99127.67
2019-03-09T17:06:57.806Z,99101.85
2019-03-09T17:09:25.467Z,99096.23
2019-03-09T17:11:53.286Z,99095.89
2019-03-09T17:14:20.930Z,99088.66
2019-03-09T17:16:48.675Z,99081.63
2019-03-09T17:19:16.422Z,99082.50
2019-03-09T17:21:44.088Z,99075.11
2019-03-09T17:24:11.726Z,99070.13
2019-03-09T17:26:39.367Z,99063.50
2019-03-09T17:29:07.042Z,99055.05
2019-03-09T17:31:34.691Z,99049.86
2019-03-09T17:34:02.339Z,99052.52
2019-03-09T17:36:30.030Z,99062.02
2019-03-09T17:38:57.710Z,99062.09
2019-03-09T17:41:25.366Z,99057.90
2019-03-09T17:43:53.007Z,99047.84
2019-03-09T17:46:20.659Z,99040.91
2019-03-09T17:48:48.298Z,99040.13
2019-03-09T17:51:15.947Z,99026.69
2019-03-09T17:53:43.612Z,99027.11
2019-03-09T17:56:11.246Z,98996.59
2019-03-09T17:58:38.889Z,98990.89
2019-03-09T18:01:06.530Z,98978.72
2019-03-09T18:03:34.178Z,98974.82
2019-03-09T18:06:01.840Z,98976.54
2019-03-09T18:08:29.486Z,98986.81
2019-03-09T18:10:57.148Z,98984.30
2019-03-09T18:13:24.783Z,98983.40
2019-03-09T18:15:52.443Z,98983.42
2019-03-09T18:18:20.164Z,98989.58
2019-03-09T18:20:47.817Z,98987.86
2019-03-09T18:23:15.454Z,98956.78
2019-03-09T18:25:43.138Z,98954.95
2019-03-09T18:28:10.778Z,98982.53
2019-03-09T18:30:38.423Z,98979.03
2019-03-09T18:33:06.079Z,98985.09
2019-03-09T18:35:33.733Z,98985.84
2019-03-09T18:38:01.396Z,98971.66
2019-03-09T18:40:29.087Z,98991.85
2019-03-09T18:42:56.790Z,99007.18
2019-03-09T18:45:24.437Z,98998.11
2019-03-09T18:47:52.079Z,99016.58
2019-03-09T18:50:19.727Z,99029.35
2019-03-09T18:52:47.370Z,99010.31
2019-03-09T18:55:15.005Z,99014.55
2019-03-09T18:57:42.676Z,98998.94
2019-03-09T19:00:10.566Z,99002.36
2019-03-09T19:02:38.234Z,99010.87
2019-03-09T19:05:05.871Z,99013.48
2019-03-09T19:07:33.515Z,99046.05
2019-03-09T19:10:01.256Z,99052.38
2019-03-09T19:12:28.894Z,99082.05
2019-03-09T19:14:56.544Z,99093.93
2019-03-09T19:17:24.174Z,99088.21
2019-03-09T19:19:51.844Z,99069.85
2019-03-09T19:22:19.487Z,99074.63
2019-03-09T19:24:47.128Z,99073.72
2019-03-09T19:27:14.765Z,99088.99
2019-03-09T19:29:42.477Z,99091.84
2019-03-09T19:32:10.164Z,99095.34
2019-03-09T19:34:37.860Z,99128.55
2019-03-09T19:37:05.500Z,99121.48
2019-03-09T19:39:33.135Z,99084.77
2019-03-09T19:42:00.845Z,99116.61
2019-03-09T19:44:28.487Z,99153.23
2019-03-09T19:46:56.127Z,99134.47
2019-03-09T19:49:23.778Z,99102.78
2019-03-09T19:51:51.422Z,99152.00
2019-03-09T19:54:19.063Z,99168.13
2019-03-09T19:56:46.695Z,99169.87
2019-03-09T19:59:14.344Z,99175.29
2019-03-09T20:01:41.983Z,99191.53
2019-03-09T20:04:09.638Z,99210.53
2019-03-09T20:06:37.291Z,99217.14
2019-03-09T20:09:04.928Z,99229.85
2019-03-09T20:11:32.562Z,99238.97
2019-03-09T20:14:00.206Z,99250.92
2019-03-09T20:16:27.839Z,99254.03
2019-03-09T20:18:55.484Z,99265.98
2019-03-09T20:21:23.115Z,99267.14
2019-03-09T20:23:50.761Z,99298.06
2019-03-09T20:26:18.474Z,99302.22
2019-03-09T20:28:46.155Z,99299.50
2019-03-09T20:31:13.872Z,99331.66
2019-03-09T20:33:41.510Z,99306.83
2019-03-09T20:36:09.141Z,99316.86
2019-03-09T20:38:36.783Z,99331.13
2019-03-09T20:41:04.472Z,99319.44
2019-03-09T20:43:32.135Z,99337.04
2019-03-09T20:46:00.291Z,99335.09
2019-03-09T20:48:27.959Z,99354.88
2019-03-09T20:50:55.675Z,99360.08
2019-03-09T20:53:23.334Z,99338.48
2019-03-09T20:55:50.946Z,99352.16
2019-03-09T20:58:18.590Z,99358.17
2019-03-09T21:00:46.283Z,99377.86
2019-03-09T21:03:13.945Z,99385.78
2019-03-09T21:05:41.583Z,99388.22
2019-03-09T21:08:09.220Z,99376.98
2019-03-09T21:10:36.854Z,99405.66
2019-03-09T21:13:04.507Z,99420.30
2019-03-09T21:17:58.078Z,99442.88
2019-03-09T21:20:25.719Z,99454.00
2019-03-09T21:22:53.426Z,99469.02
2019-03-09T21:25:21.077Z,99463.88
2019-03-09T21:27:48.715Z,99486.80
2019-03-09T21:30:16.359Z,99493.55
2019-03-09T21:32:43.989Z,99497.61
2019-03-09T21:35:11.631Z,99505.13
2019-03-09T21:37:39.318Z,99516.26
2019-03-09T21:40:06.966Z,99528.34
2019-03-09T21:42:34.619Z,99522.34
2019-03-09T21:45:02.263Z,99523.13
2019-03-09T21:47:29.987Z,99544.81
2019-03-09T21:49:57.630Z,99579.34
2019-03-09T21:52:25.300Z,99567.18
2019-03-09T21:54:52.955Z,99557.39
2019-03-09T21:57:20.607Z,99576.94
2019-03-09T21:59:48.237Z,99577.31
2019-03-09T22:02:15.864Z,99594.20
2019-03-09T22:04:43.511Z,99599.69
2019-03-09T22:07:11.139Z,99591.80
2019-03-09T22:09:38.815Z,99608.91
2019-03-09T22:12:06.434Z,99627.16
2019-03-09T22:14:34.082Z,99615.74
2019-03-09T22:17:01.720Z,99625.52
2019-03-09T22:19:29.358Z,99630.66
2019-03-09T22:21:57.079Z,99629.56
2019-03-09T22:24:24.746Z,99654.04
2019-03-09T22:26:52.425Z,99652.13
2019-03-09T22:29:20.243Z,99652.56
2019-03-09T22:31:47.878Z,99657.70
2019-03-09T22:34:15.532Z,99663.83
2019-03-09T22:36:43.168Z,99662.41
2019-03-09T22:39:10.854Z,99657.73
2019-03-09T22:41:38.498Z,99681.88
2019-03-09T22:44:06.425Z,99678.59
2019-03-09T22:46:34.055Z,99686.34
2019-03-09T22:49:01.691Z,99697.16
2019-03-09T22:51:29.327Z,99689.77
2019-03-09T22:53:56.977Z,99702.13
2019-03-09T22:56:24.632Z,99689.19
2019-03-09T22:58:52.390Z,99704.50
2019-03-09T23:01:20.060Z,99707.50
2019-03-09T23:03:47.819Z,99720.34
2019-03-09T23:06:15.455Z,99708.05
2019-03-09T23:08:43.087Z,99726.59
2019-03-09T23:11:10.723Z,99711.83
2019-03-09T23:13:38.383Z,99725.67
2019-03-09T23:16:06.029Z,99738.57
2019-03-09T23:18:33.740Z,99742.53
2019-03-09T23:21:01.379Z,99746.27
2019-03-09T23:23:29.014Z,99743.77
2019-03-09T23:25:56.658Z,99737.51
2019-03-09T23:28:24.291Z,99738.09
2019-03-09T23:30:51.947Z,99744.66
2019-03-09T23:33:19.606Z,99751.52
2019-03-09T23:35:47.312Z,99755.59
2019-03-09T23:38:14.950Z,99756.03
2019-03-09T23:40:42.591Z,99754.79
2019-03-09T23:43:10.226Z,99763.84
2019-03-09T23:45:37.867Z,99775.00
2019-03-09T23:48:05.507Z,99779.29
2019-03-09T23:50:33.142Z,99780.35
2019-03-09T23:53:00.790Z,99782.11
2019-03-09T23:58:01.079Z,99772.66
